sensor_id;sensor_type;location;lat;lon;timestamp;P1;durP1;ratioP1;P2;durP2;ratioP2
81651;SDS011;71061;55.714;37.794;2023-07-31T00:02:22;10.95;;;4.00;;
81651;SDS011;71061;55.714;37.794;2023-07-31T00:04:48;11.82;;;4.28;;
81651;SDS011;71061;55.714;37.794;2023-07-31T00:07:14;7.82;;;3.97;;
81651;SDS011;71061;55.714;37.794;2023-07-31T00:09:40;9.23;;;4.32;;
81651;SDS011;71061;55.714;37.794;2023-07-31T00:12:06;9.18;;;4.30;;
81651;SDS011;71061;55.714;37.794;2023-07-31T00:14:31;11.32;;;3.85;;
81651;SDS011;71061;55.714;37.794;2023-07-31T00:16:57;10.90;;;4.85;;
81651;SDS011;71061;55.714;37.794;2023-07-31T00:19:23;11.10;;;3.83;;
81651;SDS011;71061;55.714;37.794;2023-07-31T00:21:48;9.02;;;3.92;;
81651;SDS011;71061;55.714;37.794;2023-07-31T00:24:14;9.65;;;4.63;;
81651;SDS011;71061;55.714;37.794;2023-07-31T00:26:40;7.70;;;3.83;;
81651;SDS011;71061;55.714;37.794;2023-07-31T00:29:05;8.70;;;3.95;;
81651;SDS011;71061;55.714;37.794;2023-07-31T00:31:31;9.45;;;4.03;;
81651;SDS011;71061;55.714;37.794;2023-07-31T00:33:57;9.13;;;3.97;;
81651;SDS011;71061;55.714;37.794;2023-07-31T00:36:23;13.05;;;4.05;;
81651;SDS011;71061;55.714;37.794;2023-07-31T00:38:49;7.57;;;4.53;;
81651;SDS011;71061;55.714;37.794;2023-07-31T00:41:14;10.05;;;3.47;;
81651;SDS011;71061;55.714;37.794;2023-07-31T00:43:41;8.68;;;4.78;;
81651;SDS011;71061;55.714;37.794;2023-07-31T00:46:07;9.07;;;3.28;;
81651;SDS011;71061;55.714;37.794;2023-07-31T00:48:36;5.20;;;2.88;;
81651;SDS011;71061;55.714;37.794;2023-07-31T00:51:03;8.88;;;4.10;;
81651;SDS011;71061;55.714;37.794;2023-07-31T00:53:28;9.10;;;2.90;;
81651;SDS011;71061;55.714;37.794;2023-07-31T00:55:54;8.20;;;2.97;;
81651;SDS011;71061;55.714;37.794;2023-07-31T00:58:20;8.80;;;2.85;;
81651;SDS011;71061;55.714;37.794;2023-07-31T01:00:45;7.20;;;3.55;;
81651;SDS011;71061;55.714;37.794;2023-07-31T01:03:11;7.30;;;2.70;;
81651;SDS011;71061;55.714;37.794;2023-07-31T01:08:18;6.90;;;3.35;;
81651;SDS011;71061;55.714;37.794;2023-07-31T01:11:00;7.13;;;3.63;;
81651;SDS011;71061;55.714;37.794;2023-07-31T01:13:30;7.03;;;3.22;;
81651;SDS011;71061;55.714;37.794;2023-07-31T01:15:55;7.95;;;3.55;;
81651;SDS011;71061;55.714;37.794;2023-07-31T01:18:21;12.25;;;3.95;;
81651;SDS011;71061;55.714;37.794;2023-07-31T01:20:48;10.88;;;4.55;;
81651;SDS011;71061;55.714;37.794;2023-07-31T01:26:13;8.00;;;2.70;;
81651;SDS011;71061;55.714;37.794;2023-07-31T01:31:23;9.02;;;3.35;;
81651;SDS011;71061;55.714;37.794;2023-07-31T01:33:50;7.05;;;3.47;;
81651;SDS011;71061;55.714;37.794;2023-07-31T01:36:19;7.60;;;3.05;;
81651;SDS011;71061;55.714;37.794;2023-07-31T01:38:45;8.48;;;2.75;;
81651;SDS011;71061;55.714;37.794;2023-07-31T01:41:11;9.25;;;3.08;;
81651;SDS011;71061;55.714;37.794;2023-07-31T01:43:37;9.15;;;2.80;;
81651;SDS011;71061;55.714;37.794;2023-07-31T01:46:04;7.80;;;3.33;;
81651;SDS011;71061;55.714;37.794;2023-07-31T01:48:30;8.20;;;3.40;;
81651;SDS011;71061;55.714;37.794;2023-07-31T01:51:01;8.60;;;3.05;;
81651;SDS011;71061;55.714;37.794;2023-07-31T01:53:27;6.97;;;3.42;;
81651;SDS011;71061;55.714;37.794;2023-07-31T01:55:53;10.38;;;3.13;;
81651;SDS011;71061;55.714;37.794;2023-07-31T01:58:19;8.57;;;2.72;;
81651;SDS011;71061;55.714;37.794;2023-07-31T02:00:45;8.75;;;3.15;;
81651;SDS011;71061;55.714;37.794;2023-07-31T02:03:11;8.82;;;2.35;;
81651;SDS011;71061;55.714;37.794;2023-07-31T02:05:43;7.57;;;2.60;;
81651;SDS011;71061;55.714;37.794;2023-07-31T02:08:10;6.18;;;2.65;;
81651;SDS011;71061;55.714;37.794;2023-07-31T02:10:35;6.25;;;2.60;;
81651;SDS011;71061;55.714;37.794;2023-07-31T02:13:01;5.90;;;2.22;;
81651;SDS011;71061;55.714;37.794;2023-07-31T02:15:30;6.72;;;2.40;;
81651;SDS011;71061;55.714;37.794;2023-07-31T02:17:56;7.18;;;2.65;;
81651;SDS011;71061;55.714;37.794;2023-07-31T02:20:22;11.13;;;2.88;;
81651;SDS011;71061;55.714;37.794;2023-07-31T02:22:47;6.47;;;2.88;;
81651;SDS011;71061;55.714;37.794;2023-07-31T02:25:13;7.80;;;2.42;;
81651;SDS011;71061;55.714;37.794;2023-07-31T02:27:39;7.63;;;2.22;;
81651;SDS011;71061;55.714;37.794;2023-07-31T02:30:05;7.40;;;2.75;;
81651;SDS011;71061;55.714;37.794;2023-07-31T02:32:31;8.80;;;2.58;;
81651;SDS011;71061;55.714;37.794;2023-07-31T02:34:57;8.30;;;2.95;;
81651;SDS011;71061;55.714;37.794;2023-07-31T02:37:25;6.93;;;2.35;;
81651;SDS011;71061;55.714;37.794;2023-07-31T02:39:51;7.97;;;2.22;;
81651;SDS011;71061;55.714;37.794;2023-07-31T02:42:17;6.63;;;2.70;;
81651;SDS011;71061;55.714;37.794;2023-07-31T02:44:43;9.40;;;2.60;;
81651;SDS011;71061;55.714;37.794;2023-07-31T02:47:08;7.53;;;2.80;;
81651;SDS011;71061;55.714;37.794;2023-07-31T02:49:34;9.20;;;2.70;;
81651;SDS011;71061;55.714;37.794;2023-07-31T02:51:59;7.40;;;2.97;;
81651;SDS011;71061;55.714;37.794;2023-07-31T02:54:25;6.95;;;2.67;;
81651;SDS011;71061;55.714;37.794;2023-07-31T02:56:51;6.32;;;3.03;;
81651;SDS011;71061;55.714;37.794;2023-07-31T02:59:17;5.95;;;2.97;;
81651;SDS011;71061;55.714;37.794;2023-07-31T03:01:43;8.00;;;2.83;;
81651;SDS011;71061;55.714;37.794;2023-07-31T03:04:08;4.05;;;1.92;;
81651;SDS011;71061;55.714;37.794;2023-07-31T03:06:35;5.70;;;2.47;;
81651;SDS011;71061;55.714;37.794;2023-07-31T03:09:01;7.45;;;2.20;;
81651;SDS011;71061;55.714;37.794;2023-07-31T03:11:27;6.38;;;2.42;;
81651;SDS011;71061;55.714;37.794;2023-07-31T03:13:53;9.30;;;2.40;;
81651;SDS011;71061;55.714;37.794;2023-07-31T03:16:19;8.63;;;3.03;;
81651;SDS011;71061;55.714;37.794;2023-07-31T03:18:45;7.28;;;3.10;;
81651;SDS011;71061;55.714;37.794;2023-07-31T03:21:11;6.53;;;2.75;;
81651;SDS011;71061;55.714;37.794;2023-07-31T03:23:37;9.13;;;3.05;;
81651;SDS011;71061;55.714;37.794;2023-07-31T03:26:06;6.07;;;2.63;;
81651;SDS011;71061;55.714;37.794;2023-07-31T03:28:33;5.90;;;2.53;;
81651;SDS011;71061;55.714;37.794;2023-07-31T03:30:59;6.15;;;2.33;;
81651;SDS011;71061;55.714;37.794;2023-07-31T03:33:25;5.20;;;2.28;;
81651;SDS011;71061;55.714;37.794;2023-07-31T03:35:51;6.18;;;2.70;;
81651;SDS011;71061;55.714;37.794;2023-07-31T03:38:17;4.45;;;2.10;;
81651;SDS011;71061;55.714;37.794;2023-07-31T03:40:43;6.25;;;2.50;;
81651;SDS011;71061;55.714;37.794;2023-07-31T03:43:10;8.48;;;3.63;;
81651;SDS011;71061;55.714;37.794;2023-07-31T03:45:38;8.43;;;3.03;;
81651;SDS011;71061;55.714;37.794;2023-07-31T03:48:04;9.68;;;2.55;;
81651;SDS011;71061;55.714;37.794;2023-07-31T03:50:30;6.82;;;2.47;;
81651;SDS011;71061;55.714;37.794;2023-07-31T03:52:56;5.22;;;2.67;;
81651;SDS011;71061;55.714;37.794;2023-07-31T03:55:21;6.20;;;2.97;;
81651;SDS011;71061;55.714;37.794;2023-07-31T03:57:47;6.68;;;2.80;;
81651;SDS011;71061;55.714;37.794;2023-07-31T04:00:13;6.07;;;2.63;;
81651;SDS011;71061;55.714;37.794;2023-07-31T04:02:41;8.75;;;2.50;;
81651;SDS011;71061;55.714;37.794;2023-07-31T04:05:07;7.95;;;2.55;;
81651;SDS011;71061;55.714;37.794;2023-07-31T04:07:33;7.40;;;2.28;;
81651;SDS011;71061;55.714;37.794;2023-07-31T04:09:59;9.60;;;2.88;;
81651;SDS011;71061;55.714;37.794;2023-07-31T04:12:25;8.55;;;3.40;;
81651;SDS011;71061;55.714;37.794;2023-07-31T04:14:51;6.95;;;3.00;;
81651;SDS011;71061;55.714;37.794;2023-07-31T04:17:17;5.68;;;2.92;;
81651;SDS011;71061;55.714;37.794;2023-07-31T04:19:43;8.63;;;2.35;;
81651;SDS011;71061;55.714;37.794;2023-07-31T04:22:09;8.85;;;2.80;;
81651;SDS011;71061;55.714;37.794;2023-07-31T04:24:35;7.38;;;2.55;;
81651;SDS011;71061;55.714;37.794;2023-07-31T04:27:00;8.30;;;2.38;;
81651;SDS011;71061;55.714;37.794;2023-07-31T04:29:26;6.18;;;2.50;;
81651;SDS011;71061;55.714;37.794;2023-07-31T04:31:52;6.50;;;2.72;;
81651;SDS011;71061;55.714;37.794;2023-07-31T04:34:17;8.55;;;2.65;;
81651;SDS011;71061;55.714;37.794;2023-07-31T04:36:43;8.10;;;2.33;;
81651;SDS011;71061;55.714;37.794;2023-07-31T04:39:09;6.10;;;2.45;;
81651;SDS011;71061;55.714;37.794;2023-07-31T04:41:35;7.82;;;2.63;;
81651;SDS011;71061;55.714;37.794;2023-07-31T04:44:01;5.35;;;2.08;;
81651;SDS011;71061;55.714;37.794;2023-07-31T04:46:26;7.07;;;2.00;;
81651;SDS011;71061;55.714;37.794;2023-07-31T04:48:52;7.53;;;3.05;;
81651;SDS011;71061;55.714;37.794;2023-07-31T04:51:17;11.10;;;2.20;;
81651;SDS011;71061;55.714;37.794;2023-07-31T04:53:43;6.50;;;3.03;;
81651;SDS011;71061;55.714;37.794;2023-07-31T04:56:09;4.90;;;2.45;;
81651;SDS011;71061;55.714;37.794;2023-07-31T04:58:34;6.28;;;2.33;;
81651;SDS011;71061;55.714;37.794;2023-07-31T05:01:00;5.53;;;1.80;;
81651;SDS011;71061;55.714;37.794;2023-07-31T05:03:26;4.57;;;1.83;;
81651;SDS011;71061;55.714;37.794;2023-07-31T05:05:51;7.53;;;2.45;;
81651;SDS011;71061;55.714;37.794;2023-07-31T05:08:17;7.22;;;1.90;;
81651;SDS011;71061;55.714;37.794;2023-07-31T05:10:43;6.00;;;2.60;;
81651;SDS011;71061;55.714;37.794;2023-07-31T05:13:09;5.63;;;1.98;;
81651;SDS011;71061;55.714;37.794;2023-07-31T05:15:35;6.30;;;2.22;;
81651;SDS011;71061;55.714;37.794;2023-07-31T05:18:01;8.73;;;2.28;;
81651;SDS011;71061;55.714;37.794;2023-07-31T05:20:26;6.43;;;2.28;;
81651;SDS011;71061;55.714;37.794;2023-07-31T05:22:53;7.18;;;2.15;;
81651;SDS011;71061;55.714;37.794;2023-07-31T05:25:18;8.98;;;2.85;;
81651;SDS011;71061;55.714;37.794;2023-07-31T05:27:45;9.35;;;2.60;;
81651;SDS011;71061;55.714;37.794;2023-07-31T05:30:10;5.63;;;2.40;;
81651;SDS011;71061;55.714;37.794;2023-07-31T05:32:36;7.55;;;2.50;;
81651;SDS011;71061;55.714;37.794;2023-07-31T05:35:02;6.53;;;2.25;;
81651;SDS011;71061;55.714;37.794;2023-07-31T05:37:30;7.70;;;2.50;;
81651;SDS011;71061;55.714;37.794;2023-07-31T05:39:56;9.27;;;2.90;;
81651;SDS011;71061;55.714;37.794;2023-07-31T05:42:22;7.50;;;2.35;;
81651;SDS011;71061;55.714;37.794;2023-07-31T05:44:48;5.80;;;2.80;;
81651;SDS011;71061;55.714;37.794;2023-07-31T05:47:13;5.47;;;2.03;;
81651;SDS011;71061;55.714;37.794;2023-07-31T05:49:39;7.15;;;2.15;;
81651;SDS011;71061;55.714;37.794;2023-07-31T05:52:05;8.32;;;2.95;;
81651;SDS011;71061;55.714;37.794;2023-07-31T05:54:31;13.45;;;2.55;;
81651;SDS011;71061;55.714;37.794;2023-07-31T05:56:57;8.50;;;2.35;;
81651;SDS011;71061;55.714;37.794;2023-07-31T05:59:23;9.27;;;1.92;;
81651;SDS011;71061;55.714;37.794;2023-07-31T06:01:49;4.85;;;1.77;;
81651;SDS011;71061;55.714;37.794;2023-07-31T06:04:14;4.45;;;1.77;;
81651;SDS011;71061;55.714;37.794;2023-07-31T06:06:40;4.35;;;1.60;;
81651;SDS011;71061;55.714;37.794;2023-07-31T06:09:06;7.20;;;1.60;;
81651;SDS011;71061;55.714;37.794;2023-07-31T06:11:32;6.75;;;2.10;;
81651;SDS011;71061;55.714;37.794;2023-07-31T06:13:58;5.00;;;1.88;;
81651;SDS011;71061;55.714;37.794;2023-07-31T06:16:24;4.65;;;1.65;;
81651;SDS011;71061;55.714;37.794;2023-07-31T06:18:50;4.18;;;1.52;;
81651;SDS011;71061;55.714;37.794;2023-07-31T06:21:16;6.13;;;2.38;;
81651;SDS011;71061;55.714;37.794;2023-07-31T06:23:42;5.80;;;1.70;;
81651;SDS011;71061;55.714;37.794;2023-07-31T06:26:08;4.55;;;1.58;;
81651;SDS011;71061;55.714;37.794;2023-07-31T06:28:34;3.83;;;1.30;;
81651;SDS011;71061;55.714;37.794;2023-07-31T06:31:00;6.25;;;2.15;;
81651;SDS011;71061;55.714;37.794;2023-07-31T06:33:27;6.38;;;1.38;;
81651;SDS011;71061;55.714;37.794;2023-07-31T06:35:53;6.30;;;1.38;;
81651;SDS011;71061;55.714;37.794;2023-07-31T06:38:22;5.60;;;1.33;;
81651;SDS011;71061;55.714;37.794;2023-07-31T06:40:49;5.43;;;1.30;;
81651;SDS011;71061;55.714;37.794;2023-07-31T06:43:15;3.70;;;1.27;;
81651;SDS011;71061;55.714;37.794;2023-07-31T06:45:41;3.40;;;1.10;;
81651;SDS011;71061;55.714;37.794;2023-07-31T06:48:07;3.60;;;1.02;;
81651;SDS011;71061;55.714;37.794;2023-07-31T06:50:33;3.47;;;1.10;;
81651;SDS011;71061;55.714;37.794;2023-07-31T06:52:59;2.95;;;1.08;;
81651;SDS011;71061;55.714;37.794;2023-07-31T06:55:24;4.47;;;1.17;;
81651;SDS011;71061;55.714;37.794;2023-07-31T06:57:51;5.97;;;1.23;;
81651;SDS011;71061;55.714;37.794;2023-07-31T07:00:19;2.97;;;1.00;;
81651;SDS011;71061;55.714;37.794;2023-07-31T07:02:46;2.92;;;1.27;;
81651;SDS011;71061;55.714;37.794;2023-07-31T07:05:13;3.80;;;1.00;;
81651;SDS011;71061;55.714;37.794;2023-07-31T07:07:39;3.45;;;1.30;;
81651;SDS011;71061;55.714;37.794;2023-07-31T07:10:06;4.20;;;1.15;;
81651;SDS011;71061;55.714;37.794;2023-07-31T07:12:32;3.78;;;1.10;;
81651;SDS011;71061;55.714;37.794;2023-07-31T07:14:58;3.03;;;1.00;;
81651;SDS011;71061;55.714;37.794;2023-07-31T07:17:25;4.45;;;1.23;;
81651;SDS011;71061;55.714;37.794;2023-07-31T07:19:52;4.50;;;1.05;;
81651;SDS011;71061;55.714;37.794;2023-07-31T07:22:18;5.00;;;1.15;;
81651;SDS011;71061;55.714;37.794;2023-07-31T07:24:43;2.85;;;0.90;;
81651;SDS011;71061;55.714;37.794;2023-07-31T07:27:09;3.75;;;0.95;;
81651;SDS011;71061;55.714;37.794;2023-07-31T07:29:35;4.13;;;1.33;;
81651;SDS011;71061;55.714;37.794;2023-07-31T07:32:00;9.20;;;1.33;;
81651;SDS011;71061;55.714;37.794;2023-07-31T07:34:26;2.83;;;1.30;;
81651;SDS011;71061;55.714;37.794;2023-07-31T07:36:53;4.03;;;1.30;;
81651;SDS011;71061;55.714;37.794;2023-07-31T07:39:19;4.65;;;1.25;;
81651;SDS011;71061;55.714;37.794;2023-07-31T07:41:45;6.05;;;2.95;;
81651;SDS011;71061;55.714;37.794;2023-07-31T07:44:12;3.42;;;1.38;;
81651;SDS011;71061;55.714;37.794;2023-07-31T07:46:38;6.47;;;1.35;;
81651;SDS011;71061;55.714;37.794;2023-07-31T07:49:04;5.38;;;1.33;;
81651;SDS011;71061;55.714;37.794;2023-07-31T07:51:30;5.95;;;1.65;;
81651;SDS011;71061;55.714;37.794;2023-07-31T07:53:57;5.00;;;1.45;;
81651;SDS011;71061;55.714;37.794;2023-07-31T07:56:23;5.25;;;1.35;;
81651;SDS011;71061;55.714;37.794;2023-07-31T07:58:50;3.88;;;1.63;;
81651;SDS011;71061;55.714;37.794;2023-07-31T08:01:16;3.30;;;1.45;;
81651;SDS011;71061;55.714;37.794;2023-07-31T08:03:42;4.55;;;1.42;;
81651;SDS011;71061;55.714;37.794;2023-07-31T08:06:08;4.68;;;1.42;;
81651;SDS011;71061;55.714;37.794;2023-07-31T08:08:35;5.97;;;1.60;;
81651;SDS011;71061;55.714;37.794;2023-07-31T08:11:01;3.05;;;1.10;;
81651;SDS011;71061;55.714;37.794;2023-07-31T08:13:27;3.08;;;1.30;;
81651;SDS011;71061;55.714;37.794;2023-07-31T08:15:53;3.70;;;1.27;;
81651;SDS011;71061;55.714;37.794;2023-07-31T08:18:20;3.42;;;1.33;;
81651;SDS011;71061;55.714;37.794;2023-07-31T08:20:45;6.70;;;1.75;;
81651;SDS011;71061;55.714;37.794;2023-07-31T08:23:11;5.00;;;2.13;;
81651;SDS011;71061;55.714;37.794;2023-07-31T08:25:37;2.75;;;0.95;;
81651;SDS011;71061;55.714;37.794;2023-07-31T08:28:04;2.97;;;1.40;;
81651;SDS011;71061;55.714;37.794;2023-07-31T08:30:30;2.90;;;1.25;;
81651;SDS011;71061;55.714;37.794;2023-07-31T08:32:56;5.30;;;1.30;;
81651;SDS011;71061;55.714;37.794;2023-07-31T08:35:22;3.72;;;1.20;;
81651;SDS011;71061;55.714;37.794;2023-07-31T08:37:47;4.82;;;1.17;;
81651;SDS011;71061;55.714;37.794;2023-07-31T08:40:14;3.97;;;1.27;;
81651;SDS011;71061;55.714;37.794;2023-07-31T08:42:43;5.47;;;1.80;;
81651;SDS011;71061;55.714;37.794;2023-07-31T08:45:13;5.13;;;1.45;;
81651;SDS011;71061;55.714;37.794;2023-07-31T08:47:42;4.18;;;1.30;;
81651;SDS011;71061;55.714;37.794;2023-07-31T08:50:10;3.97;;;1.42;;
81651;SDS011;71061;55.714;37.794;2023-07-31T08:52:38;4.20;;;1.88;;
81651;SDS011;71061;55.714;37.794;2023-07-31T08:55:04;5.50;;;1.92;;
81651;SDS011;71061;55.714;37.794;2023-07-31T08:57:30;5.45;;;1.50;;
81651;SDS011;71061;55.714;37.794;2023-07-31T08:59:57;5.22;;;1.38;;
81651;SDS011;71061;55.714;37.794;2023-07-31T09:02:23;3.78;;;1.67;;
81651;SDS011;71061;55.714;37.794;2023-07-31T09:04:50;3.90;;;1.38;;
81651;SDS011;71061;55.714;37.794;2023-07-31T09:07:16;4.63;;;1.70;;
81651;SDS011;71061;55.714;37.794;2023-07-31T09:09:42;7.60;;;1.40;;
81651;SDS011;71061;55.714;37.794;2023-07-31T09:12:08;4.50;;;1.30;;
81651;SDS011;71061;55.714;37.794;2023-07-31T09:14:34;4.07;;;1.33;;
81651;SDS011;71061;55.714;37.794;2023-07-31T09:16:59;4.57;;;1.17;;
81651;SDS011;71061;55.714;37.794;2023-07-31T09:19:26;4.65;;;1.50;;
81651;SDS011;71061;55.714;37.794;2023-07-31T09:21:55;3.15;;;1.63;;
81651;SDS011;71061;55.714;37.794;2023-07-31T09:24:24;3.55;;;1.83;;
81651;SDS011;71061;55.714;37.794;2023-07-31T09:26:53;4.30;;;1.60;;
81651;SDS011;71061;55.714;37.794;2023-07-31T09:29:21;5.68;;;1.25;;
81651;SDS011;71061;55.714;37.794;2023-07-31T09:31:47;3.35;;;1.40;;
81651;SDS011;71061;55.714;37.794;2023-07-31T09:34:13;3.90;;;1.30;;
81651;SDS011;71061;55.714;37.794;2023-07-31T09:36:41;4.13;;;1.50;;
81651;SDS011;71061;55.714;37.794;2023-07-31T09:39:19;4.65;;;1.63;;
81651;SDS011;71061;55.714;37.794;2023-07-31T09:41:47;5.50;;;1.75;;
81651;SDS011;71061;55.714;37.794;2023-07-31T09:44:13;4.20;;;1.52;;
81651;SDS011;71061;55.714;37.794;2023-07-31T09:46:39;5.32;;;1.50;;
81651;SDS011;71061;55.714;37.794;2023-07-31T09:51:42;5.28;;;1.42;;
81651;SDS011;71061;55.714;37.794;2023-07-31T09:54:09;3.67;;;1.38;;
81651;SDS011;71061;55.714;37.794;2023-07-31T09:56:41;3.95;;;1.70;;
81651;SDS011;71061;55.714;37.794;2023-07-31T09:59:10;4.10;;;2.10;;
81651;SDS011;71061;55.714;37.794;2023-07-31T10:01:38;3.65;;;1.38;;
81651;SDS011;71061;55.714;37.794;2023-07-31T10:04:05;4.82;;;1.77;;
81651;SDS011;71061;55.714;37.794;2023-07-31T10:06:32;6.20;;;2.80;;
81651;SDS011;71061;55.714;37.794;2023-07-31T10:08:58;5.70;;;1.83;;
81651;SDS011;71061;55.714;37.794;2023-07-31T10:11:24;4.15;;;1.63;;
81651;SDS011;71061;55.714;37.794;2023-07-31T10:13:53;4.53;;;1.40;;
81651;SDS011;71061;55.714;37.794;2023-07-31T10:16:19;4.90;;;1.40;;
81651;SDS011;71061;55.714;37.794;2023-07-31T10:18:45;4.28;;;1.67;;
81651;SDS011;71061;55.714;37.794;2023-07-31T10:21:12;4.80;;;3.22;;
81651;SDS011;71061;55.714;37.794;2023-07-31T10:23:37;4.75;;;1.48;;
81651;SDS011;71061;55.714;37.794;2023-07-31T10:26:04;3.78;;;1.40;;
81651;SDS011;71061;55.714;37.794;2023-07-31T10:28:31;3.97;;;1.55;;
81651;SDS011;71061;55.714;37.794;2023-07-31T10:30:58;4.65;;;1.60;;
81651;SDS011;71061;55.714;37.794;2023-07-31T10:33:26;5.65;;;3.15;;
81651;SDS011;71061;55.714;37.794;2023-07-31T10:36:05;4.38;;;1.25;;
81651;SDS011;71061;55.714;37.794;2023-07-31T10:38:37;4.70;;;1.73;;
81651;SDS011;71061;55.714;37.794;2023-07-31T10:41:07;4.75;;;1.85;;
81651;SDS011;71061;55.714;37.794;2023-07-31T10:43:34;6.35;;;1.70;;
81651;SDS011;71061;55.714;37.794;2023-07-31T10:46:00;4.28;;;1.05;;
81651;SDS011;71061;55.714;37.794;2023-07-31T10:48:33;3.88;;;1.67;;
81651;SDS011;71061;55.714;37.794;2023-07-31T10:50:59;6.32;;;1.90;;
81651;SDS011;71061;55.714;37.794;2023-07-31T10:53:26;4.32;;;1.70;;
81651;SDS011;71061;55.714;37.794;2023-07-31T10:55:57;3.80;;;1.40;;
81651;SDS011;71061;55.714;37.794;2023-07-31T10:58:24;4.00;;;1.70;;
81651;SDS011;71061;55.714;37.794;2023-07-31T11:00:50;5.07;;;1.30;;
81651;SDS011;71061;55.714;37.794;2023-07-31T11:03:24;5.20;;;1.73;;
81651;SDS011;71061;55.714;37.794;2023-07-31T11:05:52;3.53;;;1.70;;
81651;SDS011;71061;55.714;37.794;2023-07-31T11:08:31;4.28;;;2.72;;
81651;SDS011;71061;55.714;37.794;2023-07-31T11:13:42;3.72;;;1.20;;
81651;SDS011;71061;55.714;37.794;2023-07-31T11:16:19;6.38;;;1.65;;
81651;SDS011;71061;55.714;37.794;2023-07-31T11:21:15;4.60;;;1.55;;
81651;SDS011;71061;55.714;37.794;2023-07-31T11:23:45;3.78;;;1.40;;
81651;SDS011;71061;55.714;37.794;2023-07-31T11:26:11;5.85;;;1.67;;
81651;SDS011;71061;55.714;37.794;2023-07-31T11:28:37;3.47;;;1.67;;
81651;SDS011;71061;55.714;37.794;2023-07-31T11:31:04;4.20;;;1.38;;
81651;SDS011;71061;55.714;37.794;2023-07-31T11:33:30;7.93;;;2.40;;
81651;SDS011;71061;55.714;37.794;2023-07-31T11:35:56;6.97;;;1.65;;
81651;SDS011;71061;55.714;37.794;2023-07-31T11:38:23;6.13;;;1.55;;
81651;SDS011;71061;55.714;37.794;2023-07-31T11:40:51;4.60;;;1.40;;
81651;SDS011;71061;55.714;37.794;2023-07-31T11:43:17;3.80;;;2.38;;
81651;SDS011;71061;55.714;37.794;2023-07-31T11:45:48;4.53;;;1.60;;
81651;SDS011;71061;55.714;37.794;2023-07-31T11:48:19;5.03;;;1.75;;
81651;SDS011;71061;55.714;37.794;2023-07-31T11:50:54;3.60;;;1.58;;
81651;SDS011;71061;55.714;37.794;2023-07-31T11:53:25;5.30;;;1.42;;
81651;SDS011;71061;55.714;37.794;2023-07-31T11:56:04;4.57;;;1.90;;
81651;SDS011;71061;55.714;37.794;2023-07-31T11:58:32;4.70;;;1.63;;
81651;SDS011;71061;55.714;37.794;2023-07-31T12:00:59;4.10;;;1.58;;
81651;SDS011;71061;55.714;37.794;2023-07-31T12:03:28;3.53;;;1.80;;
81651;SDS011;71061;55.714;37.794;2023-07-31T12:05:55;4.47;;;1.63;;
81651;SDS011;71061;55.714;37.794;2023-07-31T12:08:21;4.50;;;1.65;;
81651;SDS011;71061;55.714;37.794;2023-07-31T12:10:49;4.53;;;1.92;;
81651;SDS011;71061;55.714;37.794;2023-07-31T12:13:25;5.57;;;2.10;;
81651;SDS011;71061;55.714;37.794;2023-07-31T12:15:54;8.48;;;2.80;;
81651;SDS011;71061;55.714;37.794;2023-07-31T12:18:21;6.25;;;2.08;;
81651;SDS011;71061;55.714;37.794;2023-07-31T12:20:48;4.13;;;1.92;;
81651;SDS011;71061;55.714;37.794;2023-07-31T12:25:59;6.43;;;2.30;;
81651;SDS011;71061;55.714;37.794;2023-07-31T12:28:34;5.57;;;2.70;;
81651;SDS011;71061;55.714;37.794;2023-07-31T12:31:10;5.20;;;3.15;;
81651;SDS011;71061;55.714;37.794;2023-07-31T12:33:37;6.28;;;3.58;;
81651;SDS011;71061;55.714;37.794;2023-07-31T12:36:06;5.60;;;2.92;;
81651;SDS011;71061;55.714;37.794;2023-07-31T12:40:58;8.75;;;2.55;;
81651;SDS011;71061;55.714;37.794;2023-07-31T12:43:24;7.07;;;2.88;;
81651;SDS011;71061;55.714;37.794;2023-07-31T12:45:50;4.00;;;2.53;;
81651;SDS011;71061;55.714;37.794;2023-07-31T12:48:16;4.13;;;2.95;;
81651;SDS011;71061;55.714;37.794;2023-07-31T12:50:41;5.40;;;2.53;;
81651;SDS011;71061;55.714;37.794;2023-07-31T12:53:07;5.72;;;3.22;;
81651;SDS011;71061;55.714;37.794;2023-07-31T12:55:33;4.25;;;1.73;;
81651;SDS011;71061;55.714;37.794;2023-07-31T12:58:00;4.72;;;2.75;;
81651;SDS011;71061;55.714;37.794;2023-07-31T13:00:26;6.35;;;2.88;;
81651;SDS011;71061;55.714;37.794;2023-07-31T13:02:52;5.30;;;3.00;;
81651;SDS011;71061;55.714;37.794;2023-07-31T13:05:18;5.10;;;2.65;;
81651;SDS011;71061;55.714;37.794;2023-07-31T13:07:45;5.57;;;2.78;;
81651;SDS011;71061;55.714;37.794;2023-07-31T13:10:11;4.65;;;2.35;;
81651;SDS011;71061;55.714;37.794;2023-07-31T13:12:37;6.28;;;3.30;;
81651;SDS011;71061;55.714;37.794;2023-07-31T13:15:04;7.38;;;1.90;;
81651;SDS011;71061;55.714;37.794;2023-07-31T13:17:31;5.20;;;2.30;;
81651;SDS011;71061;55.714;37.794;2023-07-31T13:19:57;9.20;;;2.13;;
81651;SDS011;71061;55.714;37.794;2023-07-31T13:22:23;7.13;;;2.70;;
81651;SDS011;71061;55.714;37.794;2023-07-31T13:24:48;4.82;;;2.53;;
81651;SDS011;71061;55.714;37.794;2023-07-31T13:27:14;5.53;;;2.50;;
81651;SDS011;71061;55.714;37.794;2023-07-31T13:29:44;4.65;;;2.25;;
81651;SDS011;71061;55.714;37.794;2023-07-31T13:32:10;5.22;;;2.05;;
81651;SDS011;71061;55.714;37.794;2023-07-31T13:34:36;7.05;;;3.00;;
81651;SDS011;71061;55.714;37.794;2023-07-31T13:37:01;4.90;;;2.55;;
81651;SDS011;71061;55.714;37.794;2023-07-31T13:39:27;6.82;;;2.30;;
81651;SDS011;71061;55.714;37.794;2023-07-31T13:41:53;6.80;;;2.92;;
81651;SDS011;71061;55.714;37.794;2023-07-31T13:44:19;6.15;;;2.60;;
81651;SDS011;71061;55.714;37.794;2023-07-31T13:46:44;7.40;;;3.05;;
81651;SDS011;71061;55.714;37.794;2023-07-31T13:49:10;6.80;;;2.63;;
81651;SDS011;71061;55.714;37.794;2023-07-31T13:51:36;7.45;;;2.35;;
81651;SDS011;71061;55.714;37.794;2023-07-31T13:54:03;5.75;;;2.70;;
81651;SDS011;71061;55.714;37.794;2023-07-31T13:56:29;6.15;;;2.90;;
81651;SDS011;71061;55.714;37.794;2023-07-31T13:58:54;4.30;;;2.72;;
81651;SDS011;71061;55.714;37.794;2023-07-31T14:01:20;4.82;;;2.55;;
81651;SDS011;71061;55.714;37.794;2023-07-31T14:03:46;7.30;;;3.00;;
81651;SDS011;71061;55.714;37.794;2023-07-31T14:06:11;5.03;;;3.17;;
81651;SDS011;71061;55.714;37.794;2023-07-31T14:08:37;9.00;;;3.05;;
81651;SDS011;71061;55.714;37.794;2023-07-31T14:11:03;9.73;;;3.60;;
81651;SDS011;71061;55.714;37.794;2023-07-31T14:13:28;9.90;;;3.05;;
81651;SDS011;71061;55.714;37.794;2023-07-31T14:15:54;7.35;;;3.10;;
81651;SDS011;71061;55.714;37.794;2023-07-31T14:18:20;5.20;;;2.97;;
81651;SDS011;71061;55.714;37.794;2023-07-31T14:20:46;6.63;;;2.45;;
81651;SDS011;71061;55.714;37.794;2023-07-31T14:23:11;7.28;;;2.85;;
81651;SDS011;71061;55.714;37.794;2023-07-31T14:25:37;7.20;;;2.85;;
81651;SDS011;71061;55.714;37.794;2023-07-31T14:28:03;6.80;;;2.72;;
81651;SDS011;71061;55.714;37.794;2023-07-31T14:30:28;5.22;;;2.83;;
81651;SDS011;71061;55.714;37.794;2023-07-31T14:32:54;8.23;;;2.92;;
81651;SDS011;71061;55.714;37.794;2023-07-31T14:35:20;7.28;;;2.92;;
81651;SDS011;71061;55.714;37.794;2023-07-31T14:37:46;7.15;;;2.50;;
81651;SDS011;71061;55.714;37.794;2023-07-31T14:40:11;6.32;;;2.22;;
81651;SDS011;71061;55.714;37.794;2023-07-31T14:42:38;6.40;;;3.13;;
81651;SDS011;71061;55.714;37.794;2023-07-31T14:45:05;6.68;;;2.92;;
81651;SDS011;71061;55.714;37.794;2023-07-31T14:47:32;6.80;;;3.08;;
81651;SDS011;71061;55.714;37.794;2023-07-31T14:49:59;5.63;;;2.95;;
81651;SDS011;71061;55.714;37.794;2023-07-31T14:52:26;12.13;;;4.40;;